sensor_id;sensor_type;location;lat;lon;timestamp;pressure;altitude;pressure_sealevel;temperature;humidity
71361;BME280;59166;48.908;1.870;2023-01-16T00:00:38;98310.97;;;6.02;100.00
71361;BME280;59166;48.908;1.870;2023-01-16T00:05:41;98271.81;;;6.06;100.00
71361;BME280;59166;48.908;1.870;2023-01-16T00:10:43;98237.75;;;6.07;100.00
71361;BME280;59166;48.908;1.870;2023-01-16T00:15:44;98193.22;;;6.11;100.00
71361;BME280;59166;48.908;1.870;2023-01-16T00:20:47;98166.63;;;6.14;100.00
71361;BME280;59166;48.908;1.870;2023-01-16T00:25:48;98130.50;;;6.12;100.00
71361;BME280;59166;48.908;1.870;2023-01-16T00:30:49;98114.38;;;6.17;100.00
71361;BME280;59166;48.908;1.870;2023-01-16T00:35:51;98073.22;;;6.26;100.00
71361;BME280;59166;48.908;1.870;2023-01-16T00:40:52;98048.75;;;6.33;99.77
71361;BME280;59166;48.908;1.870;2023-01-16T00:45:53;98024.25;;;6.40;99.62
71361;BME280;59166;48.908;1.870;2023-01-16T00:50:56;97982.16;;;6.40;99.60
71361;BME280;59166;48.908;1.870;2023-01-16T00:55:57;97948.59;;;6.43;99.55
71361;BME280;59166;48.908;1.870;2023-01-16T01:00:58;97907.09;;;6.40;99.96
71361;BME280;59166;48.908;1.870;2023-01-16T01:06:05;97863.88;;;6.42;100.00
71361;BME280;59166;48.908;1.870;2023-01-16T01:11:07;97839.69;;;6.47;99.43
71361;BME280;59166;48.908;1.870;2023-01-16T01:16:09;97798.09;;;6.49;99.54
71361;BME280;59166;48.908;1.870;2023-01-16T01:21:12;97759.16;;;6.52;100.00
71361;BME280;59166;48.908;1.870;2023-01-16T01:26:15;97720.63;;;6.48;100.00
71361;BME280;59166;48.908;1.870;2023-01-16T01:31:17;97694.47;;;6.40;100.00
71361;BME280;59166;48.908;1.870;2023-01-16T01:36:19;97656.72;;;6.36;100.00
71361;BME280;59166;48.908;1.870;2023-01-16T01:41:20;97611.75;;;6.33;100.00
71361;BME280;59166;48.908;1.870;2023-01-16T01:46:25;97585.00;;;6.28;100.00
71361;BME280;59166;48.908;1.870;2023-01-16T01:51:31;97564.56;;;6.18;100.00
71361;BME280;59166;48.908;1.870;2023-01-16T01:56:39;97524.19;;;6.15;100.00
71361;BME280;59166;48.908;1.870;2023-01-16T02:01:42;97507.41;;;6.09;100.00
71361;BME280;59166;48.908;1.870;2023-01-16T02:06:46;97475.34;;;6.04;100.00
71361;BME280;59166;48.908;1.870;2023-01-16T02:11:53;97459.59;;;6.03;100.00
71361;BME280;59166;48.908;1.870;2023-01-16T02:16:58;97452.03;;;6.05;100.00
71361;BME280;59166;48.908;1.870;2023-01-16T02:22:27;97419.63;;;5.93;100.00
71361;BME280;59166;48.908;1.870;2023-01-16T02:33:17;97428.53;;;5.88;100.00
71361;BME280;59166;48.908;1.870;2023-01-16T02:39:01;97425.97;;;5.83;100.00
71361;BME280;59166;48.908;1.870;2023-01-16T02:44:29;97405.16;;;5.80;100.00
71361;BME280;59166;48.908;1.870;2023-01-16T02:49:53;97382.94;;;5.80;100.00
71361;BME280;59166;48.908;1.870;2023-01-16T02:55:19;97374.19;;;5.74;100.00
71361;BME280;59166;48.908;1.870;2023-01-16T03:00:23;97350.41;;;5.72;100.00
71361;BME280;59166;48.908;1.870;2023-01-16T03:05:26;97327.72;;;5.70;100.00
71361;BME280;59166;48.908;1.870;2023-01-16T03:11:02;97313.34;;;5.66;100.00
71361;BME280;59166;48.908;1.870;2023-01-16T03:16:14;97278.31;;;5.62;100.00
71361;BME280;59166;48.908;1.870;2023-01-16T03:21:30;97259.41;;;5.59;100.00
71361;BME280;59166;48.908;1.870;2023-01-16T03:27:10;97227.56;;;5.57;100.00
71361;BME280;59166;48.908;1.870;2023-01-16T03:32:24;97204.44;;;5.61;100.00
71361;BME280;59166;48.908;1.870;2023-01-16T03:37:34;97170.28;;;5.67;100.00
71361;BME280;59166;48.908;1.870;2023-01-16T03:42:38;97157.50;;;5.64;100.00
71361;BME280;59166;48.908;1.870;2023-01-16T03:47:46;97160.19;;;5.64;100.00
71361;BME280;59166;48.908;1.870;2023-01-16T03:52:55;97125.72;;;5.62;100.00
71361;BME280;59166;48.908;1.870;2023-01-16T03:58:02;97133.56;;;5.59;100.00
71361;BME280;59166;48.908;1.870;2023-01-16T04:03:08;97129.78;;;5.60;100.00
71361;BME280;59166;48.908;1.870;2023-01-16T04:08:16;97127.38;;;5.50;100.00
71361;BME280;59166;48.908;1.870;2023-01-16T04:13:21;97112.69;;;5.47;100.00
71361;BME280;59166;48.908;1.870;2023-01-16T04:18:26;97096.44;;;5.44;100.00
71361;BME280;59166;48.908;1.870;2023-01-16T04:23:30;97085.97;;;5.34;100.00
71361;BME280;59166;48.908;1.870;2023-01-16T04:28:31;97064.38;;;5.30;100.00
71361;BME280;59166;48.908;1.870;2023-01-16T04:33:31;97039.84;;;5.28;100.00
71361;BME280;59166;48.908;1.870;2023-01-16T04:38:34;97020.81;;;5.30;100.00
71361;BME280;59166;48.908;1.870;2023-01-16T04:43:35;96999.22;;;5.26;100.00
71361;BME280;59166;48.908;1.870;2023-01-16T04:48:36;96991.97;;;5.27;100.00
71361;BME280;59166;48.908;1.870;2023-01-16T04:53:38;96975.44;;;5.24;100.00
71361;BME280;59166;48.908;1.870;2023-01-16T04:58:39;96965.03;;;5.23;100.00
71361;BME280;59166;48.908;1.870;2023-01-16T05:03:40;96943.97;;;5.30;100.00
71361;BME280;59166;48.908;1.870;2023-01-16T05:08:42;96954.09;;;5.42;100.00
71361;BME280;59166;48.908;1.870;2023-01-16T05:13:43;96922.13;;;5.37;100.00
71361;BME280;59166;48.908;1.870;2023-01-16T05:18:44;96900.06;;;5.31;100.00
71361;BME280;59166;48.908;1.870;2023-01-16T05:23:47;96877.88;;;5.31;100.00
71361;BME280;59166;48.908;1.870;2023-01-16T05:28:48;96873.47;;;5.26;100.00
71361;BME280;59166;48.908;1.870;2023-01-16T05:33:48;96835.66;;;5.28;100.00
71361;BME280;59166;48.908;1.870;2023-01-16T05:38:51;96822.00;;;5.29;100.00
71361;BME280;59166;48.908;1.870;2023-01-16T05:43:52;96821.03;;;5.34;100.00
71361;BME280;59166;48.908;1.870;2023-01-16T05:48:53;96814.13;;;5.41;100.00
71361;BME280;59166;48.908;1.870;2023-01-16T05:53:55;96793.84;;;5.49;100.00
71361;BME280;59166;48.908;1.870;2023-01-16T05:58:56;96779.66;;;5.57;100.00
71361;BME280;59166;48.908;1.870;2023-01-16T06:03:57;96760.00;;;5.61;100.00
71361;BME280;59166;48.908;1.870;2023-01-16T06:08:59;96754.81;;;5.65;100.00
71361;BME280;59166;48.908;1.870;2023-01-16T06:14:00;96736.69;;;5.70;100.00
71361;BME280;59166;48.908;1.870;2023-01-16T06:19:01;96736.22;;;5.77;100.00
71361;BME280;59166;48.908;1.870;2023-01-16T06:24:04;96729.94;;;5.73;100.00
71361;BME280;59166;48.908;1.870;2023-01-16T06:29:05;96717.78;;;5.67;100.00
71361;BME280;59166;48.908;1.870;2023-01-16T06:34:06;96700.16;;;5.66;100.00
71361;BME280;59166;48.908;1.870;2023-01-16T06:39:23;96708.19;;;5.66;100.00
71361;BME280;59166;48.908;1.870;2023-01-16T06:44:24;96678.09;;;5.69;100.00
71361;BME280;59166;48.908;1.870;2023-01-16T06:49:25;96679.38;;;5.63;100.00
71361;BME280;59166;48.908;1.870;2023-01-16T06:54:27;96654.34;;;5.59;100.00
71361;BME280;59166;48.908;1.870;2023-01-16T06:59:28;96632.75;;;5.55;100.00
71361;BME280;59166;48.908;1.870;2023-01-16T07:04:29;96619.84;;;5.57;100.00
71361;BME280;59166;48.908;1.870;2023-01-16T07:09:32;96611.34;;;5.55;100.00
71361;BME280;59166;48.908;1.870;2023-01-16T07:14:32;96581.91;;;5.55;100.00
71361;BME280;59166;48.908;1.870;2023-01-16T07:19:34;96570.09;;;5.56;100.00
71361;BME280;59166;48.908;1.870;2023-01-16T07:24:37;96563.16;;;5.55;100.00
71361;BME280;59166;48.908;1.870;2023-01-16T07:29:38;96550.56;;;5.56;100.00
71361;BME280;59166;48.908;1.870;2023-01-16T07:34:39;96536.84;;;5.57;100.00
71361;BME280;59166;48.908;1.870;2023-01-16T07:39:41;96521.13;;;5.56;100.00
71361;BME280;59166;48.908;1.870;2023-01-16T07:44:42;96504.13;;;5.52;100.00
71361;BME280;59166;48.908;1.870;2023-01-16T07:49:43;96484.09;;;5.58;100.00
71361;BME280;59166;48.908;1.870;2023-01-16T07:54:45;96476.06;;;5.58;100.00
71361;BME280;59166;48.908;1.870;2023-01-16T07:59:46;96453.59;;;5.50;100.00
71361;BME280;59166;48.908;1.870;2023-01-16T08:04:47;96445.56;;;5.50;100.00
71361;BME280;59166;48.908;1.870;2023-01-16T08:09:49;96430.47;;;5.46;100.00
71361;BME280;59166;48.908;1.870;2023-01-16T08:14:50;96459.13;;;5.37;100.00
71361;BME280;59166;48.908;1.870;2023-01-16T08:19:51;96463.31;;;5.17;100.00
71361;BME280;59166;48.908;1.870;2023-01-16T08:24:54;96471.09;;;4.84;100.00
71361;BME280;59166;48.908;1.870;2023-01-16T08:29:55;96482.72;;;4.62;100.00
71361;BME280;59166;48.908;1.870;2023-01-16T08:35:05;96497.22;;;4.44;100.00
71361;BME280;59166;48.908;1.870;2023-01-16T08:40:10;96503.94;;;4.25;100.00
71361;BME280;59166;48.908;1.870;2023-01-16T08:45:12;96513.00;;;4.06;100.00
71361;BME280;59166;48.908;1.870;2023-01-16T08:50:17;96510.47;;;4.01;100.00
71361;BME280;59166;48.908;1.870;2023-01-16T08:55:23;96534.84;;;4.08;100.00
71361;BME280;59166;48.908;1.870;2023-01-16T09:00:24;96550.13;;;4.16;100.00
71361;BME280;59166;48.908;1.870;2023-01-16T09:05:26;96560.16;;;4.11;100.00
71361;BME280;59166;48.908;1.870;2023-01-16T09:10:29;96593.00;;;4.11;100.00
71361;BME280;59166;48.908;1.870;2023-01-16T09:15:31;96603.63;;;4.03;100.00
71361;BME280;59166;48.908;1.870;2023-01-16T09:20:32;96618.75;;;4.07;100.00
71361;BME280;59166;48.908;1.870;2023-01-16T09:25:37;96634.16;;;4.19;100.00
71361;BME280;59166;48.908;1.870;2023-01-16T09:30:38;96656.41;;;4.37;100.00
71361;BME280;59166;48.908;1.870;2023-01-16T09:35:41;96674.53;;;4.57;100.00
71361;BME280;59166;48.908;1.870;2023-01-16T09:40:46;96708.25;;;4.75;100.00
71361;BME280;59166;48.908;1.870;2023-01-16T09:45:49;96730.09;;;4.77;100.00
71361;BME280;59166;48.908;1.870;2023-01-16T09:50:56;96747.28;;;4.85;100.00
71361;BME280;59166;48.908;1.870;2023-01-16T09:55:59;96771.81;;;4.87;100.00
71361;BME280;59166;48.908;1.870;2023-01-16T10:01:01;96776.38;;;4.86;100.00
71361;BME280;59166;48.908;1.870;2023-01-16T10:06:09;96786.59;;;4.84;100.00
71361;BME280;59166;48.908;1.870;2023-01-16T10:11:35;96813.69;;;4.91;100.00
71361;BME280;59166;48.908;1.870;2023-01-16T10:16:51;96865.94;;;4.97;100.00
71361;BME280;59166;48.908;1.870;2023-01-16T10:22:04;96871.91;;;4.94;100.00
71361;BME280;59166;48.908;1.870;2023-01-16T10:27:16;96918.94;;;4.95;100.00
71361;BME280;59166;48.908;1.870;2023-01-16T10:32:25;96937.44;;;4.83;100.00
71361;BME280;59166;48.908;1.870;2023-01-16T10:37:28;96958.44;;;4.76;100.00
71361;BME280;59166;48.908;1.870;2023-01-16T10:42:32;96986.13;;;4.71;100.00
71361;BME280;59166;48.908;1.870;2023-01-16T10:47:34;96979.84;;;4.76;100.00
71361;BME280;59166;48.908;1.870;2023-01-16T10:52:35;97010.75;;;4.82;100.00
71361;BME280;59166;48.908;1.870;2023-01-16T10:57:44;97023.97;;;4.87;100.00
71361;BME280;59166;48.908;1.870;2023-01-16T11:02:47;97050.47;;;4.97;100.00
71361;BME280;59166;48.908;1.870;2023-01-16T11:08:01;97067.38;;;5.06;100.00
71361;BME280;59166;48.908;1.870;2023-01-16T11:13:12;97094.03;;;5.11;100.00
71361;BME280;59166;48.908;1.870;2023-01-16T11:23:59;97119.97;;;5.11;100.00
71361;BME280;59166;48.908;1.870;2023-01-16T11:29:02;97147.34;;;5.08;100.00
71361;BME280;59166;48.908;1.870;2023-01-16T11:34:17;97133.47;;;5.06;100.00
71361;BME280;59166;48.908;1.870;2023-01-16T11:39:20;97169.03;;;5.06;100.00
71361;BME280;59166;48.908;1.870;2023-01-16T11:44:26;97179.06;;;5.01;100.00
71361;BME280;59166;48.908;1.870;2023-01-16T11:49:33;97201.44;;;5.05;100.00
71361;BME280;59166;48.908;1.870;2023-01-16T12:00:32;97231.16;;;5.03;100.00
71361;BME280;59166;48.908;1.870;2023-01-16T12:05:43;97220.03;;;5.10;100.00
71361;BME280;59166;48.908;1.870;2023-01-16T12:10:53;97254.41;;;5.16;100.00
71361;BME280;59166;48.908;1.870;2023-01-16T12:16:10;97262.44;;;5.16;100.00
71361;BME280;59166;48.908;1.870;2023-01-16T12:21:26;97280.81;;;5.09;100.00
71361;BME280;59166;48.908;1.870;2023-01-16T12:26:35;97295.34;;;4.90;100.00
71361;BME280;59166;48.908;1.870;2023-01-16T12:31:54;97306.44;;;4.83;100.00
71361;BME280;59166;48.908;1.870;2023-01-16T12:37:09;97312.59;;;4.97;100.00
71361;BME280;59166;48.908;1.870;2023-01-16T12:47:46;97331.44;;;5.06;100.00
71361;BME280;59166;48.908;1.870;2023-01-16T12:53:04;97349.47;;;5.14;100.00
71361;BME280;59166;48.908;1.870;2023-01-16T12:58:12;97357.00;;;5.26;100.00
71361;BME280;59166;48.908;1.870;2023-01-16T13:03:26;97365.13;;;5.34;100.00
71361;BME280;59166;48.908;1.870;2023-01-16T13:08:33;97383.97;;;5.43;100.00
71361;BME280;59166;48.908;1.870;2023-01-16T13:13:38;97395.16;;;5.45;100.00
71361;BME280;59166;48.908;1.870;2023-01-16T13:18:44;97408.16;;;5.38;100.00
71361;BME280;59166;48.908;1.870;2023-01-16T13:23:50;97417.06;;;5.47;100.00
71361;BME280;59166;48.908;1.870;2023-01-16T13:28:59;97420.34;;;5.57;100.00
71361;BME280;59166;48.908;1.870;2023-01-16T13:34:09;97431.34;;;5.69;100.00
71361;BME280;59166;48.908;1.870;2023-01-16T13:39:41;97441.53;;;5.81;99.82
71361;BME280;59166;48.908;1.870;2023-01-16T13:44:46;97452.78;;;5.83;98.82
71361;BME280;59166;48.908;1.870;2023-01-16T13:49:52;97463.38;;;5.74;96.94
71361;BME280;59166;48.908;1.870;2023-01-16T13:54:55;97467.53;;;5.67;99.22
71361;BME280;59166;48.908;1.870;2023-01-16T13:59:58;97480.63;;;5.55;99.44
71361;BME280;59166;48.908;1.870;2023-01-16T14:05:18;97491.66;;;5.53;100.00
71361;BME280;59166;48.908;1.870;2023-01-16T14:10:23;97479.63;;;5.51;99.08
71361;BME280;59166;48.908;1.870;2023-01-16T14:15:23;97511.88;;;5.59;99.93
71361;BME280;59166;48.908;1.870;2023-01-16T14:20:42;97517.66;;;5.80;100.00
71361;BME280;59166;48.908;1.870;2023-01-16T14:25:43;97511.09;;;5.72;97.24
71361;BME280;59166;48.908;1.870;2023-01-16T14:30:45;97531.91;;;5.62;98.54
71361;BME280;59166;48.908;1.870;2023-01-16T14:35:50;97528.84;;;5.68;97.27
71361;BME280;59166;48.908;1.870;2023-01-16T14:40:54;97533.00;;;5.61;97.51
71361;BME280;59166;48.908;1.870;2023-01-16T14:46:29;97543.09;;;5.50;97.13
71361;BME280;59166;48.908;1.870;2023-01-16T14:51:33;97555.72;;;5.50;97.78
71361;BME280;59166;48.908;1.870;2023-01-16T14:56:35;97560.16;;;5.54;99.12
71361;BME280;59166;48.908;1.870;2023-01-16T15:01:40;97565.41;;;5.46;97.65
71361;BME280;59166;48.908;1.870;2023-01-16T15:06:47;97581.34;;;5.37;95.81
71361;BME280;59166;48.908;1.870;2023-01-16T15:11:53;97587.75;;;5.22;96.55
71361;BME280;59166;48.908;1.870;2023-01-16T15:17:13;97599.59;;;5.16;95.32
71361;BME280;59166;48.908;1.870;2023-01-16T15:22:24;97611.25;;;5.07;94.94
71361;BME280;59166;48.908;1.870;2023-01-16T15:27:41;97627.88;;;5.04;95.22
71361;BME280;59166;48.908;1.870;2023-01-16T15:32:53;97628.59;;;4.91;93.59
71361;BME280;59166;48.908;1.870;2023-01-16T15:37:56;97633.38;;;4.94;95.05
71361;BME280;59166;48.908;1.870;2023-01-16T15:42:57;97634.53;;;4.88;94.46
71361;BME280;59166;48.908;1.870;2023-01-16T15:48:09;97648.41;;;4.90;95.48
71361;BME280;59166;48.908;1.870;2023-01-16T15:53:17;97653.34;;;5.01;94.88
71361;BME280;59166;48.908;1.870;2023-01-16T15:58:19;97666.63;;;5.06;97.85
71361;BME280;59166;48.908;1.870;2023-01-16T16:03:22;97668.31;;;5.02;98.40
71361;BME280;59166;48.908;1.870;2023-01-16T16:08:27;97683.84;;;5.00;97.61
71361;BME280;59166;48.908;1.870;2023-01-16T16:13:30;97673.81;;;4.92;98.42
71361;BME280;59166;48.908;1.870;2023-01-16T16:18:31;97674.47;;;4.79;97.49
71361;BME280;59166;48.908;1.870;2023-01-16T16:23:33;97685.44;;;4.59;98.31
71361;BME280;59166;48.908;1.870;2023-01-16T16:28:36;97688.19;;;4.54;100.00
71361;BME280;59166;48.908;1.870;2023-01-16T16:33:39;97704.25;;;4.49;97.09
71361;BME280;59166;48.908;1.870;2023-01-16T16:38:46;97709.09;;;4.47;98.68
71361;BME280;59166;48.908;1.870;2023-01-16T16:43:49;97708.38;;;4.41;98.26
71361;BME280;59166;48.908;1.870;2023-01-16T16:48:50;97710.91;;;4.28;97.65
71361;BME280;59166;48.908;1.870;2023-01-16T16:53:55;97719.38;;;4.11;96.95
71361;BME280;59166;48.908;1.870;2023-01-16T16:58:57;97733.31;;;4.03;98.39
71361;BME280;59166;48.908;1.870;2023-01-16T17:04:02;97729.44;;;3.90;97.75
71361;BME280;59166;48.908;1.870;2023-01-16T17:09:05;97724.69;;;3.82;98.44
71361;BME280;59166;48.908;1.870;2023-01-16T17:14:06;97732.19;;;3.80;100.00
71361;BME280;59166;48.908;1.870;2023-01-16T17:19:15;97743.22;;;3.68;99.42
71361;BME280;59166;48.908;1.870;2023-01-16T17:24:19;97745.94;;;3.58;100.00
71361;BME280;59166;48.908;1.870;2023-01-16T17:29:20;97746.25;;;3.57;100.00
71361;BME280;59166;48.908;1.870;2023-01-16T17:34:21;97754.56;;;3.50;100.00
71361;BME280;59166;48.908;1.870;2023-01-16T17:39:23;97764.16;;;3.51;100.00
71361;BME280;59166;48.908;1.870;2023-01-16T17:44:25;97759.03;;;3.60;100.00
71361;BME280;59166;48.908;1.870;2023-01-16T17:49:26;97770.22;;;3.62;100.00
71361;BME280;59166;48.908;1.870;2023-01-16T17:54:28;97757.19;;;3.55;100.00
71361;BME280;59166;48.908;1.870;2023-01-16T17:59:29;97768.66;;;3.56;100.00
71361;BME280;59166;48.908;1.870;2023-01-16T18:04:30;97782.56;;;3.53;100.00
71361;BME280;59166;48.908;1.870;2023-01-16T18:09:32;97787.09;;;3.52;100.00
71361;BME280;59166;48.908;1.870;2023-01-16T18:14:33;97774.81;;;3.56;100.00
71361;BME280;59166;48.908;1.870;2023-01-16T18:19:34;97767.00;;;3.65;100.00
71361;BME280;59166;48.908;1.870;2023-01-16T18:24:37;97771.75;;;3.73;100.00
71361;BME280;59166;48.908;1.870;2023-01-16T18:29:39;97779.19;;;3.76;100.00
71361;BME280;59166;48.908;1.870;2023-01-16T18:34:40;97783.16;;;3.84;100.00
71361;BME280;59166;48.908;1.870;2023-01-16T18:39:43;97774.59;;;3.87;100.00
71361;BME280;59166;48.908;1.870;2023-01-16T18:44:43;97791.91;;;3.94;100.00
71361;BME280;59166;48.908;1.870;2023-01-16T18:49:44;97789.25;;;3.89;100.00
71361;BME280;59166;48.908;1.870;2023-01-16T18:54:47;97774.34;;;3.83;100.00
71361;BME280;59166;48.908;1.870;2023-01-16T18:59:47;97779.19;;;3.76;100.00
71361;BME280;59166;48.908;1.870;2023-01-16T19:04:48;97774.97;;;3.70;100.00
71361;BME280;59166;48.908;1.870;2023-01-16T19:09:52;97775.00;;;3.65;100.00
71361;BME280;59166;48.908;1.870;2023-01-16T19:14:54;97773.72;;;3.57;100.00
71361;BME280;59166;48.908;1.870;2023-01-16T19:19:56;97767.84;;;3.55;100.00
71361;BME280;59166;48.908;1.870;2023-01-16T19:24:58;97770.03;;;3.53;100.00
71361;BME280;59166;48.908;1.870;2023-01-16T19:29:58;97772.69;;;3.48;100.00
71361;BME280;59166;48.908;1.870;2023-01-16T19:34:59;97772.13;;;3.56;100.00
71361;BME280;59166;48.908;1.870;2023-01-16T19:40:02;97780.34;;;3.65;100.00
71361;BME280;59166;48.908;1.870;2023-01-16T19:45:03;97759.78;;;3.65;100.00
71361;BME280;59166;48.908;1.870;2023-01-16T19:50:05;97763.25;;;3.66;100.00
71361;BME280;59166;48.908;1.870;2023-01-16T19:55:08;97751.81;;;3.60;100.00
71361;BME280;59166;48.908;1.870;2023-01-16T20:00:09;97754.75;;;3.64;100.00
71361;BME280;59166;48.908;1.870;2023-01-16T20:05:10;97747.56;;;3.59;100.00
71361;BME280;59166;48.908;1.870;2023-01-16T20:10:13;97744.13;;;3.54;100.00
71361;BME280;59166;48.908;1.870;2023-01-16T20:15:14;97732.69;;;3.48;100.00
71361;BME280;59166;48.908;1.870;2023-01-16T20:20:15;97725.97;;;3.51;100.00
71361;BME280;59166;48.908;1.870;2023-01-16T20:25:17;97715.59;;;3.49;100.00
71361;BME280;59166;48.908;1.870;2023-01-16T20:30:18;97723.31;;;3.51;100.00
71361;BME280;59166;48.908;1.870;2023-01-16T20:35:19;97714.00;;;3.48;100.00
71361;BME280;59166;48.908;1.870;2023-01-16T20:40:21;97720.94;;;3.44;100.00
71361;BME280;59166;48.908;1.870;2023-01-16T20:45:22;97711.63;;;3.42;100.00
71361;BME280;59166;48.908;1.870;2023-01-16T20:50:23;97713.25;;;3.38;100.00
71361;BME280;59166;48.908;1.870;2023-01-16T20:55:25;97709.78;;;3.42;100.00
71361;BME280;59166;48.908;1.870;2023-01-16T21:00:26;97706.84;;;3.44;100.00
71361;BME280;59166;48.908;1.870;2023-01-16T21:05:28;97699.38;;;3.41;100.00
71361;BME280;59166;48.908;1.870;2023-01-16T21:10:31;97700.47;;;3.40;100.00
71361;BME280;59166;48.908;1.870;2023-01-16T21:15:32;97699.16;;;3.32;100.00
71361;BME280;59166;48.908;1.870;2023-01-16T21:20:32;97706.19;;;3.23;100.00
71361;BME280;59166;48.908;1.870;2023-01-16T21:25:35;97704.63;;;3.12;100.00
71361;BME280;59166;48.908;1.870;2023-01-16T21:30:35;97694.28;;;3.05;100.00
71361;BME280;59166;48.908;1.870;2023-01-16T21:35:36;97695.09;;;3.01;100.00
71361;BME280;59166;48.908;1.870;2023-01-16T21:40:39;97691.13;;;2.93;100.00
71361;BME280;59166;48.908;1.870;2023-01-16T21:45:39;97687.69;;;2.88;100.00
71361;BME280;59166;48.908;1.870;2023-01-16T21:50:40;97687.72;;;2.83;100.00
71361;BME280;59166;48.908;1.870;2023-01-16T21:55:43;97682.16;;;2.79;100.00
71361;BME280;59166;48.908;1.870;2023-01-16T22:00:44;97675.22;;;2.73;100.00
71361;BME280;59166;48.908;1.870;2023-01-16T22:05:45;97681.66;;;2.67;100.00
71361;BME280;59166;48.908;1.870;2023-01-16T22:10:47;97688.09;;;2.61;100.00
71361;BME280;59166;48.908;1.870;2023-01-16T22:15:48;97685.47;;;2.56;100.00
71361;BME280;59166;48.908;1.870;2023-01-16T22:20:49;97678.00;;;2.48;100.00
71361;BME280;59166;48.908;1.870;2023-01-16T22:25:52;97674.59;;;2.42;100.00
71361;BME280;59166;48.908;1.870;2023-01-16T22:30:54;97671.41;;;2.35;100.00
71361;BME280;59166;48.908;1.870;2023-01-16T22:35:57;97674.88;;;2.26;100.00
71361;BME280;59166;48.908;1.870;2023-01-16T22:41:03;97678.09;;;2.28;100.00
71361;BME280;59166;48.908;1.870;2023-01-16T22:46:05;97679.94;;;2.27;100.00
71361;BME280;59166;48.908;1.870;2023-01-16T22:51:06;97687.72;;;2.19;100.00
71361;BME280;59166;48.908;1.870;2023-01-16T22:56:09;97690.38;;;2.19;100.00
71361;BME280;59166;48.908;1.870;2023-01-16T23:01:12;97684.50;;;2.17;100.00
71361;BME280;59166;48.908;1.870;2023-01-16T23:06:13;97687.69;;;2.13;100.00
71361;BME280;59166;48.908;1.870;2023-01-16T23:11:22;97693.56;;;2.05;100.00
71361;BME280;59166;48.908;1.870;2023-01-16T23:16:24;97692.78;;;2.00;100.00
71361;BME280;59166;48.908;1.870;2023-01-16T23:21:26;97692.00;;;1.89;100.00
71361;BME280;59166;48.908;1.870;2023-01-16T23:26:29;97699.19;;;1.84;100.00
71361;BME280;59166;48.908;1.870;2023-01-16T23:31:30;97705.84;;;1.86;100.00
71361;BME280;59166;48.908;1.870;2023-01-16T23:36:31;97703.44;;;1.90;100.00
71361;BME280;59166;48.908;1.870;2023-01-16T23:41:33;97698.66;;;1.87;100.00
71361;BME280;59166;48.908;1.870;2023-01-16T23:46:36;97686.16;;;1.82;100.00
71361;BME280;59166;48.908;1.870;2023-01-16T23:51:37;97684.31;;;1.78;100.00
71361;BME280;59166;48.908;1.870;2023-01-16T23:56:40;97671.78;;;1.73;100.00
